createdAt,value
2018-10-06T00:00:58.666Z,16.10
2018-10-06T00:03:29.832Z,14.47
2018-10-06T00:06:00.301Z,15.20
2018-10-06T00:08:30.794Z,15.10
2018-10-06T00:11:00.898Z,13.43
2018-10-06T00:13:31.381Z,13.90
2018-10-06T00:16:01.689Z,15.83
2018-10-06T00:18:31.961Z,15.10
2018-10-06T00:21:02.397Z,15.40
2018-10-06T00:23:33.178Z,14.97
2018-10-06T00:26:03.612Z,14.80
2018-10-06T00:28:33.805Z,14.47
2018-10-06T00:31:03.965Z,16.50
2018-10-06T00:33:34.113Z,14.30
2018-10-06T00:36:04.690Z,15.40
2018-10-06T00:38:35.597Z,15.07
2018-10-06T00:41:05.932Z,13.77
2018-10-06T00:43:36.187Z,15.70
2018-10-06T00:46:06.262Z,14.40
2018-10-06T00:48:36.486Z,15.30
2018-10-06T00:51:06.845Z,14.17
2018-10-06T00:53:37.176Z,15.03
2018-10-06T00:56:07.196Z,14.53
2018-10-06T00:58:37.240Z,14.23
2018-10-06T01:01:07.665Z,13.70
2018-10-06T01:03:37.559Z,13.77
2018-10-06T01:06:07.660Z,12.63
2018-10-06T01:08:37.730Z,13.57
2018-10-06T01:11:07.916Z,13.90
2018-10-06T01:13:38.297Z,14.77
2018-10-06T01:16:08.704Z,13.53
2018-10-06T01:18:38.909Z,14.70
2018-10-06T01:21:09.251Z,13.30
2018-10-06T01:23:39.218Z,14.10
2018-10-06T01:26:09.155Z,15.10
2018-10-06T01:28:39.687Z,12.23
2018-10-06T01:31:10.021Z,13.30
2018-10-06T01:33:40.523Z,12.10
2018-10-06T01:36:10.761Z,12.67
2018-10-06T01:38:40.831Z,12.60
2018-10-06T01:41:11.390Z,13.37
2018-10-06T01:43:41.461Z,13.13
2018-10-06T01:47:15.104Z,12.53
2018-10-06T01:49:44.968Z,12.83
2018-10-06T01:52:15.209Z,12.47
2018-10-06T01:54:45.169Z,12.13
2018-10-06T01:57:15.408Z,12.87
2018-10-06T01:59:46.114Z,14.03
2018-10-06T02:02:16.306Z,13.00
2018-10-06T02:04:48.112Z,13.60
2018-10-06T02:07:18.250Z,12.57
2018-10-06T02:09:48.404Z,13.30
2018-10-06T02:12:18.292Z,13.30
2018-10-06T02:14:48.465Z,14.47
2018-10-06T02:17:18.727Z,13.43
2018-10-06T02:19:49.215Z,12.50
2018-10-06T02:22:19.074Z,13.40
2018-10-06T02:24:49.887Z,12.90
2018-10-06T02:27:20.734Z,13.63
2018-10-06T02:29:50.894Z,12.73
2018-10-06T02:32:21.097Z,12.60
2018-10-06T02:34:51.214Z,12.50
2018-10-06T02:37:21.223Z,13.20
2018-10-06T02:39:51.121Z,13.00
2018-10-06T02:42:21.431Z,13.40
2018-10-06T02:44:52.089Z,13.60
2018-10-06T02:47:22.411Z,13.30
2018-10-06T02:49:52.654Z,13.77
2018-10-06T02:52:23.331Z,13.00
2018-10-06T02:54:53.950Z,12.57
2018-10-06T02:57:24.258Z,12.90
2018-10-06T02:59:55.166Z,12.70
2018-10-06T03:02:25.724Z,12.50
2018-10-06T03:04:56.144Z,12.37
2018-10-06T03:07:27.614Z,12.83
2018-10-06T03:09:58.278Z,12.40
2018-10-06T03:12:29.196Z,12.30
2018-10-06T03:15:00.412Z,13.13
2018-10-06T03:17:30.659Z,13.43
2018-10-06T03:20:00.710Z,13.87
2018-10-06T03:22:30.949Z,13.00
2018-10-06T03:25:01.399Z,11.80
2018-10-06T03:27:31.695Z,12.83
2018-10-06T03:30:01.724Z,12.70
2018-10-06T03:32:32.740Z,12.07
2018-10-06T03:35:03.137Z,12.40
2018-10-06T03:37:33.124Z,12.20
2018-10-06T03:40:03.395Z,12.93
2018-10-06T03:42:33.594Z,12.40
2018-10-06T03:45:03.964Z,13.13
2018-10-06T03:47:34.204Z,13.50
2018-10-06T03:50:04.314Z,13.77
2018-10-06T03:52:34.890Z,12.57
2018-10-06T03:55:05.399Z,13.53
2018-10-06T03:57:36.190Z,13.10
2018-10-06T04:00:07.114Z,13.83
2018-10-06T04:02:37.439Z,13.70
2018-10-06T04:05:07.479Z,13.77
2018-10-06T04:07:37.434Z,12.37
2018-10-06T04:10:07.875Z,13.40
2018-10-06T04:12:37.872Z,13.83
2018-10-06T04:15:08.321Z,13.40
2018-10-06T04:17:38.580Z,12.87
2018-10-06T04:20:08.448Z,12.50
2018-10-06T04:22:38.660Z,12.73
2018-10-06T04:25:09.249Z,12.77
2018-10-06T04:27:41.351Z,12.13
2018-10-06T04:30:11.823Z,12.67
2018-10-06T04:32:42.096Z,13.60
2018-10-06T04:35:13.313Z,14.17
2018-10-06T04:37:43.539Z,15.37
2018-10-06T04:40:13.570Z,13.33
2018-10-06T04:42:43.770Z,14.00
2018-10-06T04:45:13.964Z,14.10
2018-10-06T04:47:43.884Z,14.63
2018-10-06T04:50:13.957Z,15.57
2018-10-06T04:52:44.282Z,15.80
2018-10-06T04:55:14.346Z,15.50
2018-10-06T04:57:44.278Z,16.10
2018-10-06T05:00:14.432Z,14.80
2018-10-06T05:02:44.255Z,17.10
2018-10-06T05:05:14.485Z,16.17
2018-10-06T05:07:44.655Z,17.60
2018-10-06T05:10:15.022Z,16.63
2018-10-06T05:12:44.780Z,17.30
2018-10-06T05:15:15.465Z,16.00
2018-10-06T05:17:46.153Z,17.70
2018-10-06T05:20:17.012Z,17.93
2018-10-06T05:22:47.353Z,16.30
2018-10-06T05:25:18.724Z,16.27
2018-10-06T05:27:50.372Z,17.17
2018-10-06T05:30:21.630Z,15.63
2018-10-06T05:32:51.945Z,15.53
2018-10-06T05:35:22.260Z,16.63
2018-10-06T05:37:52.325Z,15.23
2018-10-06T05:40:22.403Z,16.73
2018-10-06T05:42:52.549Z,15.90
2018-10-06T05:45:23.003Z,15.57
2018-10-06T05:47:53.057Z,14.27
2018-10-06T05:50:23.123Z,14.80
2018-10-06T05:52:53.926Z,15.30
2018-10-06T05:55:25.131Z,17.30
2018-10-06T05:57:56.102Z,16.07
2018-10-06T06:00:26.972Z,15.57
2018-10-06T06:02:57.604Z,15.10
2018-10-06T06:05:28.917Z,15.83
2018-10-06T06:07:59.797Z,15.03
2018-10-06T06:10:30.926Z,15.67
2018-10-06T06:13:03.071Z,16.20
2018-10-06T06:15:34.197Z,15.50
2018-10-06T06:18:06.545Z,16.90
2018-10-06T06:20:36.655Z,16.30
2018-10-06T06:23:06.658Z,17.00
2018-10-06T06:25:36.748Z,16.13
2018-10-06T06:28:07.103Z,16.80
2018-10-06T06:30:37.265Z,17.40
2018-10-06T06:33:07.663Z,14.73
2018-10-06T06:35:37.594Z,15.60
2018-10-06T06:38:07.997Z,16.90
2018-10-06T06:40:38.038Z,14.00
2018-10-06T06:43:08.685Z,13.73
2018-10-06T06:45:39.394Z,14.50
2018-10-06T06:48:10.062Z,13.80
2018-10-06T06:50:41.037Z,18.30
2018-10-06T06:53:13.476Z,14.30
2018-10-06T06:55:46.812Z,13.27
2018-10-06T06:58:17.441Z,14.00
2018-10-06T07:00:48.207Z,14.97
2018-10-06T07:03:19.050Z,14.10
2018-10-06T07:05:51.268Z,15.90
2018-10-06T07:08:23.437Z,14.60
2018-10-06T07:10:54.602Z,15.77
2018-10-06T07:13:24.855Z,14.83
2018-10-06T07:15:55.030Z,15.20
2018-10-06T07:18:25.155Z,15.60
2018-10-06T07:20:55.432Z,15.63
2018-10-06T07:23:25.778Z,15.57
2018-10-06T07:25:56.659Z,15.20
2018-10-06T07:28:27.057Z,16.50
2018-10-06T07:30:57.739Z,16.73
2018-10-06T07:33:28.257Z,19.27
2018-10-06T07:35:59.048Z,16.90
2018-10-06T07:38:29.289Z,16.90
2018-10-06T07:41:00.016Z,16.60
2018-10-06T07:43:30.767Z,16.80
2018-10-06T07:46:17.466Z,15.73
2018-10-06T07:48:47.876Z,16.40
2018-10-06T07:51:18.088Z,16.43
2018-10-06T07:53:48.041Z,16.70
2018-10-06T07:56:21.142Z,16.90
2018-10-06T07:58:52.586Z,16.13
2018-10-06T08:01:23.730Z,14.60
2018-10-06T08:03:54.739Z,16.27
2018-10-06T08:06:25.598Z,15.70
2018-10-06T08:08:55.805Z,17.40
2018-10-06T08:11:27.467Z,16.30
2018-10-06T08:13:58.856Z,17.70
2018-10-06T08:16:29.508Z,18.10
2018-10-06T08:19:00.129Z,15.77
2018-10-06T08:21:30.764Z,15.40
2018-10-06T08:24:02.144Z,16.10
2018-10-06T08:26:32.811Z,16.17
2018-10-06T08:29:03.084Z,16.60
2018-10-06T08:31:33.114Z,17.30
2018-10-06T08:34:03.244Z,16.07
2018-10-06T08:36:33.433Z,15.97
2018-10-06T08:39:03.680Z,15.20
2018-10-06T08:41:33.627Z,15.40
2018-10-06T08:44:03.645Z,16.30
2018-10-06T08:46:33.551Z,15.83
2018-10-06T08:49:03.971Z,15.90
2018-10-06T08:51:34.954Z,16.30
2018-10-06T08:54:04.986Z,17.23
2018-10-06T08:56:35.085Z,14.87
2018-10-06T08:59:05.114Z,16.10
2018-10-06T09:01:35.084Z,15.37
2018-10-06T09:04:05.557Z,15.83
2018-10-06T09:06:36.064Z,15.10
2018-10-06T09:09:08.105Z,14.73
2018-10-06T09:11:38.300Z,14.97
2018-10-06T09:14:08.322Z,16.40
2018-10-06T09:16:38.362Z,16.07
2018-10-06T09:19:08.600Z,15.50
2018-10-06T09:21:38.704Z,15.07
2018-10-06T09:24:08.826Z,14.93
2018-10-06T09:26:39.297Z,15.75
2018-10-06T09:29:09.631Z,15.47
2018-10-06T09:31:40.033Z,14.93
2018-10-06T09:34:10.759Z,14.70
2018-10-06T09:36:40.896Z,17.17
2018-10-06T09:39:11.058Z,15.30
2018-10-06T09:41:41.322Z,15.33
2018-10-06T09:44:11.433Z,16.90
2018-10-06T09:46:42.030Z,15.03
2018-10-06T09:49:12.737Z,15.30
2018-10-06T09:51:43.404Z,15.70
2018-10-06T09:54:13.822Z,15.73
2018-10-06T09:56:43.911Z,17.50
2018-10-06T09:59:14.253Z,16.15
2018-10-06T10:01:50.063Z,16.25
2018-10-06T10:04:20.554Z,16.03
2018-10-06T10:06:50.824Z,14.58
2018-10-06T10:09:21.342Z,14.90
2018-10-06T10:11:52.057Z,15.78
2018-10-06T10:14:21.962Z,14.53
2018-10-06T10:16:52.338Z,15.03
2018-10-06T10:19:23.373Z,15.05
2018-10-06T10:21:53.624Z,14.25
2018-10-06T10:24:24.016Z,14.70
2018-10-06T10:26:53.883Z,13.50
2018-10-06T10:29:23.836Z,13.25
2018-10-06T10:31:54.460Z,13.65
2018-10-06T10:34:24.818Z,13.80
2018-10-06T10:36:54.972Z,14.73
2018-10-06T10:39:25.933Z,14.23
2018-10-06T10:41:56.508Z,15.08
2018-10-06T10:44:26.989Z,13.10
2018-10-06T10:46:57.280Z,13.93
2018-10-06T10:49:28.094Z,14.15
2018-10-06T10:51:59.049Z,12.95
2018-10-06T10:54:29.760Z,13.80
2018-10-06T10:57:00.126Z,13.83
2018-10-06T10:59:30.226Z,13.65
2018-10-06T11:02:00.763Z,12.80
2018-10-06T11:04:30.820Z,14.80
2018-10-06T11:07:01.256Z,13.93
2018-10-06T11:09:31.292Z,14.05
2018-10-06T11:12:01.692Z,14.33
2018-10-06T11:14:31.668Z,14.15
2018-10-06T11:17:01.955Z,14.30
2018-10-06T11:19:35.900Z,14.50
2018-10-06T11:22:10.394Z,13.30
2018-10-06T11:24:46.252Z,13.93
2018-10-06T11:27:18.834Z,14.18
2018-10-06T11:29:49.048Z,13.75
2018-10-06T11:32:28.153Z,13.20
2018-10-06T11:35:01.132Z,13.58
2018-10-06T11:37:31.352Z,14.93
2018-10-06T11:40:07.608Z,14.38
2018-10-06T11:42:41.737Z,13.50
2018-10-06T11:45:11.754Z,13.80
2018-10-06T11:51:10.214Z,15.75
2018-10-06T11:53:45.160Z,13.50
2018-10-06T11:56:24.594Z,15.30
2018-10-06T11:59:00.475Z,14.83
2018-10-06T12:01:39.439Z,14.80
2018-10-06T12:04:09.616Z,14.73
2018-10-06T12:06:39.772Z,13.90
2018-10-06T12:09:20.531Z,15.27
2018-10-06T12:15:36.870Z,15.07
2018-10-06T12:18:15.190Z,15.73
2018-10-06T12:20:47.387Z,29.20
2018-10-06T12:23:17.614Z,15.43
2018-10-06T12:25:47.614Z,14.57
2018-10-06T12:28:17.456Z,15.97
2018-10-06T12:30:47.753Z,15.10
2018-10-06T12:33:17.638Z,15.50
2018-10-06T12:35:47.945Z,15.57
2018-10-06T12:38:18.256Z,15.60
2018-10-06T12:40:48.338Z,14.80
2018-10-06T12:43:18.261Z,14.63
2018-10-06T12:45:47.997Z,14.63
2018-10-06T12:48:17.968Z,14.80
2018-10-06T12:50:48.087Z,15.07
2018-10-06T12:53:18.068Z,15.83
2018-10-06T12:55:48.288Z,13.73
2018-10-06T12:58:18.333Z,15.90
2018-10-06T13:04:16.016Z,13.30
2018-10-06T13:09:38.232Z,15.70
2018-10-06T13:12:08.370Z,13.40
2018-10-06T13:14:43.619Z,14.77
2018-10-06T13:17:17.206Z,14.70
2018-10-06T13:20:04.776Z,14.73
2018-10-06T13:22:39.771Z,14.07
2018-10-06T13:25:15.594Z,13.23
2018-10-06T13:28:17.540Z,13.70
2018-10-06T13:31:00.079Z,12.53
2018-10-06T13:33:37.439Z,13.57
2018-10-06T13:36:32.183Z,14.00
2018-10-06T13:39:07.524Z,14.43
2018-10-06T13:41:44.498Z,13.17
2018-10-06T13:44:21.591Z,13.37
2018-10-06T13:46:57.373Z,12.97
2018-10-06T13:49:27.605Z,14.10
2018-10-06T13:52:01.765Z,13.40
2018-10-06T13:57:58.011Z,11.97
2018-10-06T14:00:36.625Z,12.90
2018-10-06T14:03:31.407Z,17.83
2018-10-06T14:06:03.178Z,13.60
2018-10-06T14:08:33.579Z,12.23
2018-10-06T14:11:03.533Z,12.17
2018-10-06T14:13:33.978Z,13.50
2018-10-06T14:16:07.533Z,12.90
2018-10-06T14:18:37.480Z,14.70
2018-10-06T14:21:07.487Z,12.90
2018-10-06T14:23:37.880Z,13.40
2018-10-06T14:26:12.036Z,14.50
2018-10-06T14:28:43.515Z,14.17
2018-10-06T14:31:15.767Z,12.40
2018-10-06T14:33:45.778Z,13.83
2018-10-06T14:36:15.674Z,13.38
2018-10-06T14:38:45.517Z,13.20
2018-10-06T14:41:16.061Z,14.40
2018-10-06T14:43:46.895Z,15.43
2018-10-06T14:46:16.888Z,15.53
2018-10-06T14:48:49.304Z,15.00
2018-10-06T14:51:19.761Z,16.47
2018-10-06T14:53:49.729Z,17.10
2018-10-06T14:56:19.567Z,17.37
2018-10-06T14:58:49.542Z,18.10
2018-10-06T15:01:19.724Z,18.07
2018-10-06T15:03:59.944Z,18.60
2018-10-06T15:06:31.064Z,17.47
2018-10-06T15:09:00.878Z,17.57
2018-10-06T15:11:30.991Z,18.20
2018-10-06T15:14:01.121Z,18.33
2018-10-06T15:16:30.910Z,17.70
2018-10-06T15:19:13.354Z,19.60
2018-10-06T15:22:18.164Z,18.07
2018-10-06T15:25:06.327Z,20.80
2018-10-06T15:28:07.149Z,19.80
2018-10-06T15:38:03.129Z,20.20
2018-10-06T15:41:06.048Z,22.53
2018-10-06T15:50:23.790Z,18.40
2018-10-06T15:52:59.630Z,22.63
2018-10-06T15:55:47.053Z,19.50
2018-10-06T15:58:47.694Z,20.33
2018-10-06T16:01:27.096Z,20.73
2018-10-06T16:04:26.071Z,20.57
2018-10-06T16:10:52.033Z,25.77
2018-10-06T16:13:29.963Z,23.40
2018-10-06T16:16:03.830Z,21.77
2018-10-06T16:18:59.732Z,26.33
2018-10-06T16:25:22.269Z,21.73
2018-10-06T16:27:52.337Z,21.53
2018-10-06T16:33:25.397Z,21.60
2018-10-06T16:35:55.274Z,22.10
2018-10-06T16:38:30.974Z,24.40
2018-10-06T16:41:01.045Z,23.17
2018-10-06T16:43:31.597Z,23.00
2018-10-06T16:46:01.382Z,24.77
2018-10-06T16:48:31.439Z,21.87
2018-10-06T16:51:01.384Z,21.10
2018-10-06T16:57:08.418Z,25.10
2018-10-06T16:59:58.275Z,22.23
2018-10-06T17:06:02.246Z,22.90
2018-10-06T17:09:04.748Z,24.10
2018-10-06T17:11:35.276Z,23.33
2018-10-06T17:14:05.509Z,21.53
2018-10-06T17:16:35.692Z,22.23
2018-10-06T17:19:05.906Z,24.00
2018-10-06T17:21:35.953Z,22.87
2018-10-06T17:24:06.350Z,22.50
2018-10-06T17:26:36.311Z,24.00
2018-10-06T17:29:06.533Z,20.83
2018-10-06T17:31:36.969Z,23.13
2018-10-06T17:34:07.014Z,22.77
2018-10-06T17:36:36.909Z,23.63
2018-10-06T17:39:08.401Z,23.10
2018-10-06T17:41:38.572Z,22.00
2018-10-06T17:44:09.004Z,21.20
2018-10-06T17:46:39.155Z,23.50
2018-10-06T17:49:09.585Z,21.80
2018-10-06T17:51:39.539Z,24.70
2018-10-06T17:54:10.562Z,24.53
2018-10-06T17:56:40.366Z,22.57
2018-10-06T17:59:10.254Z,25.87
2018-10-06T18:01:41.264Z,22.00
2018-10-06T18:04:27.538Z,25.30
2018-10-06T18:06:57.898Z,24.20
2018-10-06T18:09:28.061Z,25.60
2018-10-06T18:11:58.186Z,24.83
2018-10-06T18:14:28.437Z,24.23
2018-10-06T18:16:58.675Z,22.63
2018-10-06T18:19:29.480Z,25.90
2018-10-06T18:21:59.774Z,26.00
2018-10-06T18:24:33.820Z,25.50
2018-10-06T18:27:04.434Z,27.03
2018-10-06T18:29:38.347Z,26.30
2018-10-06T18:32:08.578Z,26.60
2018-10-06T18:34:42.135Z,27.10
2018-10-06T18:40:36.780Z,27.70
2018-10-06T18:43:06.917Z,27.73
2018-10-06T18:45:36.962Z,27.10
2018-10-06T18:48:06.875Z,26.80
2018-10-06T18:50:38.195Z,28.10
2018-10-06T18:53:08.323Z,27.87
2018-10-06T18:56:20.468Z,28.83
2018-10-06T18:58:51.113Z,26.80
2018-10-06T19:01:21.241Z,25.97
2018-10-06T19:07:20.198Z,33.13
2018-10-06T19:09:53.118Z,34.33
2018-10-06T19:12:25.832Z,35.50
2018-10-06T19:15:17.155Z,36.20
2018-10-06T19:17:56.792Z,35.97
2018-10-06T19:20:26.736Z,31.60
2018-10-06T19:33:14.359Z,32.13
2018-10-06T19:36:25.239Z,31.83
2018-10-06T19:38:56.133Z,35.30
2018-10-06T19:41:27.099Z,33.00
2018-10-06T19:44:18.553Z,33.50
2018-10-06T19:47:15.230Z,31.90
2018-10-06T20:03:08.745Z,32.23
2018-10-06T20:09:25.314Z,32.27
2018-10-06T20:12:46.172Z,33.00
2018-10-06T20:15:46.790Z,32.60
2018-10-06T20:18:50.520Z,33.57
2018-10-06T20:24:47.864Z,33.20
2018-10-06T20:27:19.877Z,32.87
2018-10-06T20:29:54.365Z,35.50
2018-10-06T20:32:27.094Z,34.00
2018-10-06T20:34:56.993Z,34.73
2018-10-06T20:37:30.344Z,33.87
2018-10-06T20:40:01.054Z,32.23
2018-10-06T20:42:31.085Z,33.60
2018-10-06T20:45:01.842Z,34.47
2018-10-06T20:47:32.533Z,31.80
2018-10-06T20:50:03.290Z,32.90
2018-10-06T20:52:33.621Z,32.80
2018-10-06T20:55:03.950Z,34.27
2018-10-06T20:57:34.921Z,33.23
2018-10-06T21:00:05.297Z,34.47
2018-10-06T21:02:35.453Z,31.30
2018-10-06T21:05:06.596Z,34.33
2018-10-06T21:07:36.645Z,34.07
2018-10-06T21:10:06.690Z,32.57
2018-10-06T21:12:37.420Z,33.83
2018-10-06T21:15:08.176Z,31.83
2018-10-06T21:17:38.814Z,32.47
2018-10-06T21:20:09.506Z,31.90
2018-10-06T21:22:39.974Z,33.57
2018-10-06T21:25:10.586Z,30.37
2018-10-06T21:27:41.272Z,34.60
2018-10-06T21:30:12.440Z,33.10
2018-10-06T21:32:43.290Z,33.43
2018-10-06T21:35:14.377Z,30.90
2018-10-06T21:37:45.081Z,32.10
2018-10-06T21:40:15.999Z,30.30
2018-10-06T21:42:46.217Z,30.80
2018-10-06T21:45:16.182Z,30.90
2018-10-06T21:47:46.463Z,32.40
2018-10-06T21:50:16.724Z,31.03
2018-10-06T21:52:47.444Z,31.37
2018-10-06T21:55:18.921Z,30.00
2018-10-06T21:57:49.477Z,32.10
2018-10-06T22:00:19.710Z,31.47
2018-10-06T22:02:50.303Z,32.07
2018-10-06T22:05:20.577Z,30.10
2018-10-06T22:07:51.165Z,31.83
2018-10-06T22:10:21.407Z,31.20
2018-10-06T22:12:51.781Z,32.60
2018-10-06T22:15:22.670Z,32.57
2018-10-06T22:17:53.824Z,30.37
2018-10-06T22:20:24.324Z,30.87
2018-10-06T22:22:55.192Z,29.60
2018-10-06T22:25:25.774Z,28.93
2018-10-06T22:27:56.659Z,31.20
2018-10-06T22:30:26.873Z,30.90
2018-10-06T22:32:57.191Z,36.13
2018-10-06T22:35:27.891Z,30.73
2018-10-06T22:37:58.650Z,27.47
2018-10-06T22:40:29.400Z,27.10
2018-10-06T22:43:00.438Z,27.20
2018-10-06T22:45:31.347Z,27.70
2018-10-06T22:48:02.026Z,27.90
2018-10-06T22:50:32.587Z,27.93
2018-10-06T22:53:03.303Z,28.00
2018-10-06T22:55:33.629Z,26.10
2018-10-06T22:58:04.156Z,25.80
2018-10-06T23:00:35.228Z,26.37
2018-10-06T23:03:06.990Z,26.07
2018-10-06T23:05:38.370Z,26.73
2018-10-06T23:08:09.152Z,26.50
2018-10-06T23:10:39.907Z,26.63
2018-10-06T23:13:10.902Z,26.33
2018-10-06T23:15:41.657Z,25.90
2018-10-06T23:18:12.384Z,26.30
2018-10-06T23:20:43.229Z,27.50
2018-10-06T23:23:14.164Z,24.47
2018-10-06T23:25:44.477Z,25.10
2018-10-06T23:28:16.210Z,24.90
2018-10-06T23:30:46.900Z,26.47
2018-10-06T23:33:17.669Z,25.57
2018-10-06T23:35:47.826Z,26.60
2018-10-06T23:38:18.384Z,26.30
2018-10-06T23:40:48.958Z,26.33
2018-10-06T23:43:19.041Z,25.47
2018-10-06T23:45:49.571Z,26.57
2018-10-06T23:48:20.418Z,25.70
2018-10-06T23:50:51.055Z,25.40
2018-10-06T23:53:22.107Z,24.67
2018-10-06T23:55:53.227Z,25.57
2018-10-06T23:58:23.702Z,25.73
